Nearby METAR Reports

 

EIDW - Dublin Airport, Ireland
Distance from station: ENE 79km
Updated: 23/06/2017 11:00
Mostly cloudy
Mostly cloudy
 Wind from WSW
Wind: WSW 28 km/h
Temperature: 16°C
Dew Point: 13°C
Humidity: 83%
Barometer: 1011 hPa
Clouds: Mostly cloudy
Visibility: 10 km
Cloud details: Few Clouds 305 m
Mostly cloudy 457 m
2017/06/23 10:00 EIDW 231000Z 24015KT 9999 FEW010 BKN015 16/13 Q1011 TEMPO BKN013
EIME - Casement (mil), Ireland
Distance from station: ENE 62km
Updated: 23/06/2017 11:00
Light drizzle, Overcast
Light drizzle, Overcast
 Wind from WSW
Wind: WSW 28 km/h
Temperature: 16°C
Dew Point: 13°C
Humidity: 83%
Barometer: 1011 hPa
Summary: Light Drizzle
Clouds: Overcast
Visibility: 10 km
Cloud details: Few Clouds 335 m
Overcast 427 m
2017/06/23 10:00 EIME 231000Z 24015KT 9999 -DZ FEW011 OVC014 16/13 Q1011
EIWF - Waterford Arpt, Ireland
Distance from station: S 111km
Updated: 23/06/2017 10:30
Mostly cloudy
Mostly cloudy
 Wind from WSW
Wind: WSW 22 km/h
Temperature: 15°C
Dew Point: 14°C
Humidity: 94%
Barometer: 1013 hPa
Clouds: Mostly cloudy
Visibility: 10 km
Cloud details: Mostly cloudy 152 m
2017/06/23 09:30 EIWF 230930Z 25012KT 190V320 9999 BKN005 15/14 Q1013
 
EINN - Shannon Airport, Ireland
Distance from station: WSW 117km
Updated: 23/06/2017 11:00
Light drizzle, Mostly cloudy
Light drizzle, Mostly cloudy
 Wind from WSW
Wind: WSW 30 km/h
Temperature: 16°C
Dew Point: 14°C
Humidity: 88%
Barometer: 1012 hPa
Summary: Light Drizzle
Clouds: Mostly cloudy
Visibility: 8 km
Cloud details: Partly cloudy 183 m
Mostly cloudy 274 m
2017/06/23 10:00 EINN 231000Z 24016KT 8000 -DZ SCT006 BKN009 16/14 Q1012 NOSIG
EIKN - Connaught Apt, Ireland
Distance from station: NW 127km
Updated: 23/06/2017 11:00
Overcast
Overcast
 Wind from W
Wind: W 24 km/h
Temperature: 13°C
Dew Point: 12°C
Humidity: 94%
Barometer: 1010 hPa
Clouds: Overcast
Visibility: 10 km
Cloud details: Partly cloudy 457 m
Overcast 701 m
2017/06/23 10:00 EIKN 231000Z 26013KT 9999 SCT015 OVC023 13/12 Q1010 NOSIG
EISG - Sligo Arpt, Ireland
Distance from station: NNW 148km
Updated: 23/06/2017 10:30
Overcast
Overcast
 Wind from W
Wind: W 20 km/h
Temperature: 13°C
Dew Point: 11°C
Humidity: 88%
Barometer: 1010 hPa
Clouds: Overcast
Visibility: 8 km
Cloud details: Few Clouds 274 m
Mostly cloudy 488 m
Overcast 640 m
2017/06/23 09:30 EISG 230930Z 26011KT 8000 FEW009 BKN016 OVC021 13/11 Q1010
 
EICK - Cork Arpt/Corcai, Ireland
Distance from station: SSW 165km
Updated: 23/06/2017 11:00
Mostly cloudy
Mostly cloudy
 Wind from WSW
Wind: WSW 28 km/h
Temperature: 16°C
Dew Point: 14°C
Humidity: 88%
Barometer: 1013 hPa
Clouds: Mostly cloudy
Visibility: 10 km
Cloud details: Few Clouds 244 m
Mostly cloudy 305 m
2017/06/23 10:00 EICK 231000Z 24015KT 9999 FEW008 BKN010 16/14 Q1013 NOSIG
EGAA - Belfast/Aldergro, United Kingdom
Distance from station: NNE 179km
Updated: 23/06/2017 10:50
Mostly cloudy
Mostly cloudy
 Wind from W
Wind: W 28 km/h
Temperature: 15°C
Dew Point: 13°C
Humidity: 88%
Barometer: 1009 hPa
Clouds: Mostly cloudy
Visibility: 10 km
Cloud details: Partly cloudy 305 m
Mostly cloudy 457 m
Mostly cloudy 579 m
2017/06/23 09:50 EGAA 230950Z 27015KT 9999 SCT010 BKN015 BKN019 15/13 Q1009
EIKY - Kerry Arpt, Ireland
Distance from station: SW 182km
Updated: 23/06/2017 11:00
Overcast
Overcast
 Wind from WSW
Wind: WSW 26 km/h
Temperature: 16°C
Dew Point: 15°C
Humidity: 94%
Barometer: 1013 hPa
Clouds: Overcast
Visibility: 10 km
Cloud details: Few Clouds 244 m
Overcast 518 m
2017/06/23 10:00 EIKY 231000Z 25014KT 9999 FEW008 OVC017 16/15 Q1013
 
EGAC - Belfast Harbour, United Kingdom
Distance from station: NNE 188km
Updated: 23/06/2017 10:50
Light rain, Showers, Mostly cloudy
Light rain, Showers, Mostly cloudy
 Wind from WSW
Wind: WSW 22 km/h
Temperature: 16°C
Dew Point: 15°C
Humidity: 94%
Barometer: 1008 hPa
Summary: Light rain, Showers
Clouds: Mostly cloudy
Visibility: 8 km
Cloud details: Few Clouds 244 m
Mostly cloudy 427 m
2017/06/23 09:50 EGAC 230950Z 24012KT 8000 -SHRA FEW008 BKN014 16/15 Q1008
EGOV - Valley Raf, United Kingdom
Distance from station: E 188km
Updated: 23/06/2017 10:50
Mostly cloudy
Mostly cloudy
 Wind from SSW
Wind: SSW 39 km/h
Temperature: 14°C
Dew Point: 13°C
Humidity: 94%
Barometer: 1012 hPa
Clouds: Mostly cloudy
Visibility: 10 km
Cloud details: Few Clouds 183 m
Partly cloudy 671 m
Mostly cloudy 1676 m
2017/06/23 09:50 EGOV 230950Z 20021KT 9999 FEW006 SCT022 BKN055 14/13 Q1012 WHT TEMPO FEW022 BKN025 BLU
EGNS - Isle Of Man/Rona, United Kingdom
Distance from station: ENE 207km
Updated: 23/06/2017 10:50
Overcast
Overcast
 Wind from SW
Wind: SW 30 km/h
Temperature: 14°C
Dew Point: 13°C
Humidity: 94%
Barometer: 1010 hPa
Clouds: Overcast
Visibility: 10 km
Cloud details: Few Clouds 305 m
Mostly cloudy 427 m
Overcast 914 m
2017/06/23 09:50 EGNS 230950Z 22016KT 9999 FEW010 BKN014 OVC030 14/13 Q1010 TEMPO 6000 RADZ BKN008